sensor_id;sensor_type;location;lat;lon;timestamp;temperature;humidity
53776;DHT22;44276;49.534;6.378;2023-06-22T00:00:36;19.50;99.90
53776;DHT22;44276;49.534;6.378;2023-06-22T00:03:06;19.60;99.90
53776;DHT22;44276;49.534;6.378;2023-06-22T00:05:34;19.60;99.90
53776;DHT22;44276;49.534;6.378;2023-06-22T00:08:03;19.50;99.90
53776;DHT22;44276;49.534;6.378;2023-06-22T00:10:33;19.50;99.90
53776;DHT22;44276;49.534;6.378;2023-06-22T00:13:02;19.50;99.90
53776;DHT22;44276;49.534;6.378;2023-06-22T00:15:30;19.50;99.90
53776;DHT22;44276;49.534;6.378;2023-06-22T00:17:58;19.50;99.90
53776;DHT22;44276;49.534;6.378;2023-06-22T00:20:27;19.50;99.90
53776;DHT22;44276;49.534;6.378;2023-06-22T00:22:57;19.50;99.90
53776;DHT22;44276;49.534;6.378;2023-06-22T00:25:26;19.50;99.90
53776;DHT22;44276;49.534;6.378;2023-06-22T00:27:55;19.40;99.90
53776;DHT22;44276;49.534;6.378;2023-06-22T00:30:23;19.40;99.90
53776;DHT22;44276;49.534;6.378;2023-06-22T00:32:52;19.60;99.90
53776;DHT22;44276;49.534;6.378;2023-06-22T00:35:21;19.50;99.90
53776;DHT22;44276;49.534;6.378;2023-06-22T00:37:49;19.50;99.90
53776;DHT22;44276;49.534;6.378;2023-06-22T00:40:18;19.60;99.90
53776;DHT22;44276;49.534;6.378;2023-06-22T00:42:48;19.70;99.90
53776;DHT22;44276;49.534;6.378;2023-06-22T00:45:18;19.70;99.90
53776;DHT22;44276;49.534;6.378;2023-06-22T00:47:46;19.70;99.90
53776;DHT22;44276;49.534;6.378;2023-06-22T00:50:18;19.70;99.90
53776;DHT22;44276;49.534;6.378;2023-06-22T00:52:51;19.60;99.90
53776;DHT22;44276;49.534;6.378;2023-06-22T00:55:22;19.60;99.90
53776;DHT22;44276;49.534;6.378;2023-06-22T00:57:53;19.60;99.90
53776;DHT22;44276;49.534;6.378;2023-06-22T01:00:24;19.70;99.90
53776;DHT22;44276;49.534;6.378;2023-06-22T01:02:54;19.70;99.90
53776;DHT22;44276;49.534;6.378;2023-06-22T01:05:22;19.70;99.90
53776;DHT22;44276;49.534;6.378;2023-06-22T01:08:05;19.50;99.90
53776;DHT22;44276;49.534;6.378;2023-06-22T01:10:49;19.40;99.90
53776;DHT22;44276;49.534;6.378;2023-06-22T01:13:28;19.40;99.90
53776;DHT22;44276;49.534;6.378;2023-06-22T01:16:04;19.40;99.90
53776;DHT22;44276;49.534;6.378;2023-06-22T01:18:57;19.40;99.90
53776;DHT22;44276;49.534;6.378;2023-06-22T01:21:32;19.30;99.90
53776;DHT22;44276;49.534;6.378;2023-06-22T01:24:10;19.30;99.90
53776;DHT22;44276;49.534;6.378;2023-06-22T01:26:54;19.30;99.90
53776;DHT22;44276;49.534;6.378;2023-06-22T01:29:39;19.30;99.90
53776;DHT22;44276;49.534;6.378;2023-06-22T01:32:10;19.30;99.90
53776;DHT22;44276;49.534;6.378;2023-06-22T01:34:40;19.30;99.90
53776;DHT22;44276;49.534;6.378;2023-06-22T01:37:11;19.40;99.90
53776;DHT22;44276;49.534;6.378;2023-06-22T01:39:40;19.40;99.90
53776;DHT22;44276;49.534;6.378;2023-06-22T01:42:09;19.40;99.90
53776;DHT22;44276;49.534;6.378;2023-06-22T01:44:39;19.30;99.90
53776;DHT22;44276;49.534;6.378;2023-06-22T01:47:08;19.30;99.90
53776;DHT22;44276;49.534;6.378;2023-06-22T01:49:36;19.30;99.90
53776;DHT22;44276;49.534;6.378;2023-06-22T01:52:05;19.30;99.90
53776;DHT22;44276;49.534;6.378;2023-06-22T01:54:34;19.30;99.90
53776;DHT22;44276;49.534;6.378;2023-06-22T01:57:03;19.30;99.90
53776;DHT22;44276;49.534;6.378;2023-06-22T01:59:35;19.30;99.90
53776;DHT22;44276;49.534;6.378;2023-06-22T02:02:12;19.20;99.90
53776;DHT22;44276;49.534;6.378;2023-06-22T02:04:47;19.20;99.90
53776;DHT22;44276;49.534;6.378;2023-06-22T02:07:20;19.30;99.90
53776;DHT22;44276;49.534;6.378;2023-06-22T02:09:52;19.20;99.90
53776;DHT22;44276;49.534;6.378;2023-06-22T02:12:23;19.20;99.90
53776;DHT22;44276;49.534;6.378;2023-06-22T02:14:56;19.20;99.90
53776;DHT22;44276;49.534;6.378;2023-06-22T02:17:27;19.20;99.90
53776;DHT22;44276;49.534;6.378;2023-06-22T02:20:02;19.20;99.90
53776;DHT22;44276;49.534;6.378;2023-06-22T02:22:34;19.20;99.90
53776;DHT22;44276;49.534;6.378;2023-06-22T02:25:03;19.20;99.90
53776;DHT22;44276;49.534;6.378;2023-06-22T02:27:32;19.10;99.90
53776;DHT22;44276;49.534;6.378;2023-06-22T02:30:01;19.10;99.90
53776;DHT22;44276;49.534;6.378;2023-06-22T02:32:30;19.20;99.90
53776;DHT22;44276;49.534;6.378;2023-06-22T02:35:01;19.20;99.90
53776;DHT22;44276;49.534;6.378;2023-06-22T02:37:31;19.20;99.90
53776;DHT22;44276;49.534;6.378;2023-06-22T02:39:59;19.20;99.90
53776;DHT22;44276;49.534;6.378;2023-06-22T02:42:27;19.20;99.90
53776;DHT22;44276;49.534;6.378;2023-06-22T02:44:55;19.20;99.90
53776;DHT22;44276;49.534;6.378;2023-06-22T02:47:25;19.20;99.90
53776;DHT22;44276;49.534;6.378;2023-06-22T02:49:54;19.20;99.90
53776;DHT22;44276;49.534;6.378;2023-06-22T02:52:22;19.20;99.90
53776;DHT22;44276;49.534;6.378;2023-06-22T02:54:50;19.20;99.90
53776;DHT22;44276;49.534;6.378;2023-06-22T02:57:18;19.20;99.90
53776;DHT22;44276;49.534;6.378;2023-06-22T02:59:46;19.20;99.90
53776;DHT22;44276;49.534;6.378;2023-06-22T03:02:14;19.20;99.90
53776;DHT22;44276;49.534;6.378;2023-06-22T03:04:44;19.30;99.90
53776;DHT22;44276;49.534;6.378;2023-06-22T03:07:16;19.10;99.90
53776;DHT22;44276;49.534;6.378;2023-06-22T03:09:45;19.10;99.90
53776;DHT22;44276;49.534;6.378;2023-06-22T03:12:13;19.10;99.90
53776;DHT22;44276;49.534;6.378;2023-06-22T03:14:41;19.10;99.90
53776;DHT22;44276;49.534;6.378;2023-06-22T03:17:09;19.20;99.90
53776;DHT22;44276;49.534;6.378;2023-06-22T03:19:38;19.20;99.90
53776;DHT22;44276;49.534;6.378;2023-06-22T03:22:08;19.20;99.90
53776;DHT22;44276;49.534;6.378;2023-06-22T03:24:39;19.10;99.90
53776;DHT22;44276;49.534;6.378;2023-06-22T03:27:08;19.10;99.90
53776;DHT22;44276;49.534;6.378;2023-06-22T03:29:36;19.00;99.90
53776;DHT22;44276;49.534;6.378;2023-06-22T03:32:05;19.00;99.90
53776;DHT22;44276;49.534;6.378;2023-06-22T03:34:33;19.10;99.90
53776;DHT22;44276;49.534;6.378;2023-06-22T03:37:04;19.10;99.90
53776;DHT22;44276;49.534;6.378;2023-06-22T03:39:33;19.10;99.90
53776;DHT22;44276;49.534;6.378;2023-06-22T03:42:02;19.10;99.90
53776;DHT22;44276;49.534;6.378;2023-06-22T03:44:31;19.10;99.90
53776;DHT22;44276;49.534;6.378;2023-06-22T03:46:59;19.10;99.90
53776;DHT22;44276;49.534;6.378;2023-06-22T03:49:28;19.20;99.90
53776;DHT22;44276;49.534;6.378;2023-06-22T03:51:57;19.30;99.90
53776;DHT22;44276;49.534;6.378;2023-06-22T03:54:25;19.20;99.90
53776;DHT22;44276;49.534;6.378;2023-06-22T03:56:56;19.20;99.90
53776;DHT22;44276;49.534;6.378;2023-06-22T03:59:25;19.20;99.90
53776;DHT22;44276;49.534;6.378;2023-06-22T04:01:53;19.30;99.90
53776;DHT22;44276;49.534;6.378;2023-06-22T04:04:21;19.30;99.90
53776;DHT22;44276;49.534;6.378;2023-06-22T04:06:50;19.30;99.90
53776;DHT22;44276;49.534;6.378;2023-06-22T04:09:18;19.30;99.90
53776;DHT22;44276;49.534;6.378;2023-06-22T04:11:46;19.30;99.90
53776;DHT22;44276;49.534;6.378;2023-06-22T04:14:15;19.30;99.90
53776;DHT22;44276;49.534;6.378;2023-06-22T04:16:43;19.40;99.90
53776;DHT22;44276;49.534;6.378;2023-06-22T04:19:11;19.30;99.90
53776;DHT22;44276;49.534;6.378;2023-06-22T04:21:43;19.30;99.90
53776;DHT22;44276;49.534;6.378;2023-06-22T04:24:12;19.40;99.90
53776;DHT22;44276;49.534;6.378;2023-06-22T04:26:40;19.40;99.90
53776;DHT22;44276;49.534;6.378;2023-06-22T04:29:08;19.50;99.90
53776;DHT22;44276;49.534;6.378;2023-06-22T04:31:38;19.60;99.90
53776;DHT22;44276;49.534;6.378;2023-06-22T04:34:08;19.60;99.90
53776;DHT22;44276;49.534;6.378;2023-06-22T04:36:37;19.70;99.90
53776;DHT22;44276;49.534;6.378;2023-06-22T04:39:07;19.80;99.90
53776;DHT22;44276;49.534;6.378;2023-06-22T04:41:37;20.00;99.90
53776;DHT22;44276;49.534;6.378;2023-06-22T04:44:12;20.10;99.90
53776;DHT22;44276;49.534;6.378;2023-06-22T04:46:53;20.20;99.90
53776;DHT22;44276;49.534;6.378;2023-06-22T04:49:28;20.30;99.90
53776;DHT22;44276;49.534;6.378;2023-06-22T04:52:00;20.30;99.90
53776;DHT22;44276;49.534;6.378;2023-06-22T04:54:28;20.40;99.90
53776;DHT22;44276;49.534;6.378;2023-06-22T04:56:59;20.40;99.90
53776;DHT22;44276;49.534;6.378;2023-06-22T04:59:29;20.50;99.90
53776;DHT22;44276;49.534;6.378;2023-06-22T05:02:00;20.60;99.90
53776;DHT22;44276;49.534;6.378;2023-06-22T05:04:30;20.80;99.90
53776;DHT22;44276;49.534;6.378;2023-06-22T05:06:59;21.10;99.90
53776;DHT22;44276;49.534;6.378;2023-06-22T05:09:28;21.30;99.90
53776;DHT22;44276;49.534;6.378;2023-06-22T05:11:57;21.50;99.90
53776;DHT22;44276;49.534;6.378;2023-06-22T05:14:26;21.80;99.90
53776;DHT22;44276;49.534;6.378;2023-06-22T05:16:54;22.20;99.90
53776;DHT22;44276;49.534;6.378;2023-06-22T05:19:27;22.60;99.90
53776;DHT22;44276;49.534;6.378;2023-06-22T05:22:00;22.70;99.90
53776;DHT22;44276;49.534;6.378;2023-06-22T05:24:28;22.60;99.90
53776;DHT22;44276;49.534;6.378;2023-06-22T05:26:56;22.60;99.90
53776;DHT22;44276;49.534;6.378;2023-06-22T05:29:24;22.60;99.90
53776;DHT22;44276;49.534;6.378;2023-06-22T05:31:53;22.70;99.90
53776;DHT22;44276;49.534;6.378;2023-06-22T05:34:21;22.70;99.90
53776;DHT22;44276;49.534;6.378;2023-06-22T05:36:51;22.70;99.90
53776;DHT22;44276;49.534;6.378;2023-06-22T05:39:19;22.50;99.90
53776;DHT22;44276;49.534;6.378;2023-06-22T05:41:47;22.40;99.90
53776;DHT22;44276;49.534;6.378;2023-06-22T05:44:15;22.40;99.90
53776;DHT22;44276;49.534;6.378;2023-06-22T05:46:44;22.50;99.90
53776;DHT22;44276;49.534;6.378;2023-06-22T05:49:13;22.50;99.90
53776;DHT22;44276;49.534;6.378;2023-06-22T05:51:43;22.30;99.90
53776;DHT22;44276;49.534;6.378;2023-06-22T05:54:12;22.30;99.90
53776;DHT22;44276;49.534;6.378;2023-06-22T05:56:42;22.50;99.90
53776;DHT22;44276;49.534;6.378;2023-06-22T05:59:10;22.60;99.90
53776;DHT22;44276;49.534;6.378;2023-06-22T06:01:38;22.70;99.90
53776;DHT22;44276;49.534;6.378;2023-06-22T06:04:07;22.70;99.90
53776;DHT22;44276;49.534;6.378;2023-06-22T06:06:37;22.60;99.90
53776;DHT22;44276;49.534;6.378;2023-06-22T06:09:07;22.60;99.90
53776;DHT22;44276;49.534;6.378;2023-06-22T06:11:37;22.50;99.90
53776;DHT22;44276;49.534;6.378;2023-06-22T06:14:05;22.30;99.90
53776;DHT22;44276;49.534;6.378;2023-06-22T06:16:33;22.40;99.90
53776;DHT22;44276;49.534;6.378;2023-06-22T06:19:02;22.50;99.90
53776;DHT22;44276;49.534;6.378;2023-06-22T06:21:30;22.90;99.90
53776;DHT22;44276;49.534;6.378;2023-06-22T06:23:58;23.70;99.90
53776;DHT22;44276;49.534;6.378;2023-06-22T06:26:26;24.00;99.90
53776;DHT22;44276;49.534;6.378;2023-06-22T06:29:00;24.20;99.90
53776;DHT22;44276;49.534;6.378;2023-06-22T06:31:30;24.40;99.90
53776;DHT22;44276;49.534;6.378;2023-06-22T06:33:58;24.80;99.90
53776;DHT22;44276;49.534;6.378;2023-06-22T06:36:26;25.30;99.90
53776;DHT22;44276;49.534;6.378;2023-06-22T06:38:54;25.80;99.90
53776;DHT22;44276;49.534;6.378;2023-06-22T06:41:22;26.10;99.90
53776;DHT22;44276;49.534;6.378;2023-06-22T06:43:50;26.70;99.90
53776;DHT22;44276;49.534;6.378;2023-06-22T06:46:20;27.60;88.10
53776;DHT22;44276;49.534;6.378;2023-06-22T06:48:48;28.50;72.90
53776;DHT22;44276;49.534;6.378;2023-06-22T06:51:16;28.90;62.70
53776;DHT22;44276;49.534;6.378;2023-06-22T06:53:45;29.00;61.40
53776;DHT22;44276;49.534;6.378;2023-06-22T06:56:13;28.20;69.80
53776;DHT22;44276;49.534;6.378;2023-06-22T06:58:41;27.50;80.10
53776;DHT22;44276;49.534;6.378;2023-06-22T07:01:11;27.40;85.40
53776;DHT22;44276;49.534;6.378;2023-06-22T07:03:42;27.60;80.50
53776;DHT22;44276;49.534;6.378;2023-06-22T07:06:10;27.60;74.50
53776;DHT22;44276;49.534;6.378;2023-06-22T07:08:39;27.70;74.90
53776;DHT22;44276;49.534;6.378;2023-06-22T07:11:07;28.10;70.10
53776;DHT22;44276;49.534;6.378;2023-06-22T07:13:35;28.30;66.30
53776;DHT22;44276;49.534;6.378;2023-06-22T07:16:04;29.10;58.40
53776;DHT22;44276;49.534;6.378;2023-06-22T07:18:32;29.80;52.10
53776;DHT22;44276;49.534;6.378;2023-06-22T07:21:01;29.90;50.00
53776;DHT22;44276;49.534;6.378;2023-06-22T07:23:33;30.10;44.30
53776;DHT22;44276;49.534;6.378;2023-06-22T07:26:01;29.70;45.20
53776;DHT22;44276;49.534;6.378;2023-06-22T07:28:29;30.00;45.30
53776;DHT22;44276;49.534;6.378;2023-06-22T07:31:04;30.30;40.90
53776;DHT22;44276;49.534;6.378;2023-06-22T07:33:32;30.50;39.70
53776;DHT22;44276;49.534;6.378;2023-06-22T07:36:01;29.60;42.60
53776;DHT22;44276;49.534;6.378;2023-06-22T07:38:34;28.60;52.10
53776;DHT22;44276;49.534;6.378;2023-06-22T07:41:03;27.60;64.80
53776;DHT22;44276;49.534;6.378;2023-06-22T07:43:32;28.20;62.30
53776;DHT22;44276;49.534;6.378;2023-06-22T07:46:01;28.50;56.20
53776;DHT22;44276;49.534;6.378;2023-06-22T07:48:29;27.50;67.00
53776;DHT22;44276;49.534;6.378;2023-06-22T07:50:58;27.30;78.00
53776;DHT22;44276;49.534;6.378;2023-06-22T07:53:27;28.00;67.40
53776;DHT22;44276;49.534;6.378;2023-06-22T07:55:56;28.50;59.80
53776;DHT22;44276;49.534;6.378;2023-06-22T07:58:24;28.60;62.00
53776;DHT22;44276;49.534;6.378;2023-06-22T08:00:52;28.00;64.80
53776;DHT22;44276;49.534;6.378;2023-06-22T08:03:20;27.40;71.00
53776;DHT22;44276;49.534;6.378;2023-06-22T08:05:48;26.90;83.60
53776;DHT22;44276;49.534;6.378;2023-06-22T08:08:17;26.40;93.50
53776;DHT22;44276;49.534;6.378;2023-06-22T08:10:46;26.00;99.90
53776;DHT22;44276;49.534;6.378;2023-06-22T08:13:15;25.80;99.90
53776;DHT22;44276;49.534;6.378;2023-06-22T08:15:43;25.80;99.90
53776;DHT22;44276;49.534;6.378;2023-06-22T08:18:14;25.90;99.90
53776;DHT22;44276;49.534;6.378;2023-06-22T08:20:43;25.80;99.90
53776;DHT22;44276;49.534;6.378;2023-06-22T08:23:11;25.50;99.90
53776;DHT22;44276;49.534;6.378;2023-06-22T08:25:39;25.40;99.90
53776;DHT22;44276;49.534;6.378;2023-06-22T08:28:09;25.30;99.90
53776;DHT22;44276;49.534;6.378;2023-06-22T08:30:37;25.30;99.90
53776;DHT22;44276;49.534;6.378;2023-06-22T08:33:05;25.10;99.90
53776;DHT22;44276;49.534;6.378;2023-06-22T08:35:33;25.10;99.90
53776;DHT22;44276;49.534;6.378;2023-06-22T08:38:02;25.20;99.90
53776;DHT22;44276;49.534;6.378;2023-06-22T08:40:30;25.30;99.90
53776;DHT22;44276;49.534;6.378;2023-06-22T08:42:58;25.10;99.90
53776;DHT22;44276;49.534;6.378;2023-06-22T08:45:27;24.60;99.90
53776;DHT22;44276;49.534;6.378;2023-06-22T08:47:57;24.10;99.90
53776;DHT22;44276;49.534;6.378;2023-06-22T08:50:25;23.00;99.90
53776;DHT22;44276;49.534;6.378;2023-06-22T08:52:54;22.20;99.90
53776;DHT22;44276;49.534;6.378;2023-06-22T08:55:24;21.60;99.90
53776;DHT22;44276;49.534;6.378;2023-06-22T08:57:53;21.20;99.90
53776;DHT22;44276;49.534;6.378;2023-06-22T09:00:22;21.10;99.90
53776;DHT22;44276;49.534;6.378;2023-06-22T09:02:52;21.20;99.90
53776;DHT22;44276;49.534;6.378;2023-06-22T09:05:24;21.20;99.90
53776;DHT22;44276;49.534;6.378;2023-06-22T09:07:53;21.20;99.90
53776;DHT22;44276;49.534;6.378;2023-06-22T09:10:25;21.50;99.90
53776;DHT22;44276;49.534;6.378;2023-06-22T09:12:55;21.70;99.90
53776;DHT22;44276;49.534;6.378;2023-06-22T09:15:23;21.90;99.90
53776;DHT22;44276;49.534;6.378;2023-06-22T09:17:54;22.00;99.90
53776;DHT22;44276;49.534;6.378;2023-06-22T09:20:24;22.20;99.90
53776;DHT22;44276;49.534;6.378;2023-06-22T09:22:53;22.50;99.90
53776;DHT22;44276;49.534;6.378;2023-06-22T09:25:22;22.90;99.90
53776;DHT22;44276;49.534;6.378;2023-06-22T09:27:51;23.50;99.90
53776;DHT22;44276;49.534;6.378;2023-06-22T09:30:20;24.20;99.90
53776;DHT22;44276;49.534;6.378;2023-06-22T09:32:50;24.70;99.90
53776;DHT22;44276;49.534;6.378;2023-06-22T09:35:20;24.80;99.90
53776;DHT22;44276;49.534;6.378;2023-06-22T09:37:49;24.70;99.90
53776;DHT22;44276;49.534;6.378;2023-06-22T09:40:21;24.20;99.90
53776;DHT22;44276;49.534;6.378;2023-06-22T09:42:50;23.40;99.90
53776;DHT22;44276;49.534;6.378;2023-06-22T09:45:19;22.90;99.90
53776;DHT22;44276;49.534;6.378;2023-06-22T09:47:48;22.70;99.90
53776;DHT22;44276;49.534;6.378;2023-06-22T09:50:16;22.70;99.90
53776;DHT22;44276;49.534;6.378;2023-06-22T09:52:47;23.10;99.90
53776;DHT22;44276;49.534;6.378;2023-06-22T09:55:21;24.20;99.90
53776;DHT22;44276;49.534;6.378;2023-06-22T09:57:50;25.90;99.90
53776;DHT22;44276;49.534;6.378;2023-06-22T10:00:19;26.80;99.90
53776;DHT22;44276;49.534;6.378;2023-06-22T10:02:52;27.30;99.90
53776;DHT22;44276;49.534;6.378;2023-06-22T10:05:27;27.30;99.90
53776;DHT22;44276;49.534;6.378;2023-06-22T10:07:58;27.60;99.90
53776;DHT22;44276;49.534;6.378;2023-06-22T10:10:27;27.80;99.90
53776;DHT22;44276;49.534;6.378;2023-06-22T10:12:57;28.00;99.90
53776;DHT22;44276;49.534;6.378;2023-06-22T10:15:30;28.50;99.90
53776;DHT22;44276;49.534;6.378;2023-06-22T10:17:58;29.00;95.20
53776;DHT22;44276;49.534;6.378;2023-06-22T10:20:27;29.30;93.80
53776;DHT22;44276;49.534;6.378;2023-06-22T10:22:55;29.80;88.80
53776;DHT22;44276;49.534;6.378;2023-06-22T10:25:27;30.00;76.90
53776;DHT22;44276;49.534;6.378;2023-06-22T10:27:56;30.40;66.30
53776;DHT22;44276;49.534;6.378;2023-06-22T10:30:25;30.20;68.60
53776;DHT22;44276;49.534;6.378;2023-06-22T10:32:53;29.90;73.50
53776;DHT22;44276;49.534;6.378;2023-06-22T10:35:22;29.30;74.20
53776;DHT22;44276;49.534;6.378;2023-06-22T10:37:54;29.00;86.50
53776;DHT22;44276;49.534;6.378;2023-06-22T10:40:23;29.10;77.20
53776;DHT22;44276;49.534;6.378;2023-06-22T10:42:53;29.40;67.80
53776;DHT22;44276;49.534;6.378;2023-06-22T10:45:22;30.20;58.70
53776;DHT22;44276;49.534;6.378;2023-06-22T10:47:51;31.00;52.00
53776;DHT22;44276;49.534;6.378;2023-06-22T10:50:19;31.00;51.40
53776;DHT22;44276;49.534;6.378;2023-06-22T10:52:54;30.80;50.80
53776;DHT22;44276;49.534;6.378;2023-06-22T10:55:26;30.50;51.90
53776;DHT22;44276;49.534;6.378;2023-06-22T10:58:14;30.50;53.10
53776;DHT22;44276;49.534;6.378;2023-06-22T11:00:44;30.80;49.10
53776;DHT22;44276;49.534;6.378;2023-06-22T11:03:17;30.80;47.50
53776;DHT22;44276;49.534;6.378;2023-06-22T11:05:58;31.10;48.50
53776;DHT22;44276;49.534;6.378;2023-06-22T11:08:29;32.00;42.20
53776;DHT22;44276;49.534;6.378;2023-06-22T11:11:00;32.60;39.40
53776;DHT22;44276;49.534;6.378;2023-06-22T11:13:31;33.00;36.10
53776;DHT22;44276;49.534;6.378;2023-06-22T11:16:00;32.80;38.50
53776;DHT22;44276;49.534;6.378;2023-06-22T11:18:31;33.40;36.10
53776;DHT22;44276;49.534;6.378;2023-06-22T11:21:01;34.50;32.10
53776;DHT22;44276;49.534;6.378;2023-06-22T11:23:30;35.60;29.50
53776;DHT22;44276;49.534;6.378;2023-06-22T11:25:58;35.80;28.00
53776;DHT22;44276;49.534;6.378;2023-06-22T11:28:27;36.50;27.70
53776;DHT22;44276;49.534;6.378;2023-06-22T11:30:56;36.60;26.80
53776;DHT22;44276;49.534;6.378;2023-06-22T11:33:36;36.10;25.70
53776;DHT22;44276;49.534;6.378;2023-06-22T11:36:05;35.90;27.00
53776;DHT22;44276;49.534;6.378;2023-06-22T11:38:33;36.00;25.40
53776;DHT22;44276;49.534;6.378;2023-06-22T11:41:03;36.10;25.00
53776;DHT22;44276;49.534;6.378;2023-06-22T11:43:32;37.40;26.10
53776;DHT22;44276;49.534;6.378;2023-06-22T11:46:01;38.60;23.10
53776;DHT22;44276;49.534;6.378;2023-06-22T11:48:31;38.70;22.90
53776;DHT22;44276;49.534;6.378;2023-06-22T11:50:59;37.90;22.60
53776;DHT22;44276;49.534;6.378;2023-06-22T11:53:29;36.50;24.60
53776;DHT22;44276;49.534;6.378;2023-06-22T11:55:58;36.90;26.30
53776;DHT22;44276;49.534;6.378;2023-06-22T11:58:26;37.70;23.10
53776;DHT22;44276;49.534;6.378;2023-06-22T12:00:55;37.90;23.90
53776;DHT22;44276;49.534;6.378;2023-06-22T12:03:25;38.80;21.60
53776;DHT22;44276;49.534;6.378;2023-06-22T12:05:53;39.60;21.60
53776;DHT22;44276;49.534;6.378;2023-06-22T12:08:21;39.40;20.90
53776;DHT22;44276;49.534;6.378;2023-06-22T12:10:50;39.90;21.00
53776;DHT22;44276;49.534;6.378;2023-06-22T12:13:18;39.60;21.40
53776;DHT22;44276;49.534;6.378;2023-06-22T12:15:46;38.90;21.40
53776;DHT22;44276;49.534;6.378;2023-06-22T12:18:14;37.50;23.00
53776;DHT22;44276;49.534;6.378;2023-06-22T12:20:44;36.30;24.70
53776;DHT22;44276;49.534;6.378;2023-06-22T12:23:12;35.40;26.80
53776;DHT22;44276;49.534;6.378;2023-06-22T12:25:41;34.60;27.70
53776;DHT22;44276;49.534;6.378;2023-06-22T12:28:09;33.60;30.00
53776;DHT22;44276;49.534;6.378;2023-06-22T12:30:37;33.60;31.90
53776;DHT22;44276;49.534;6.378;2023-06-22T12:33:05;33.60;31.40
53776;DHT22;44276;49.534;6.378;2023-06-22T12:35:34;33.40;32.20
53776;DHT22;44276;49.534;6.378;2023-06-22T12:38:04;33.00;34.60
53776;DHT22;44276;49.534;6.378;2023-06-22T12:40:33;32.00;37.50
53776;DHT22;44276;49.534;6.378;2023-06-22T12:43:01;31.40;40.60
53776;DHT22;44276;49.534;6.378;2023-06-22T12:45:29;31.10;43.30
53776;DHT22;44276;49.534;6.378;2023-06-22T12:48:00;30.70;47.10
53776;DHT22;44276;49.534;6.378;2023-06-22T12:50:28;30.20;51.70
53776;DHT22;44276;49.534;6.378;2023-06-22T12:52:57;29.70;60.60
53776;DHT22;44276;49.534;6.378;2023-06-22T12:55:28;29.10;69.20
53776;DHT22;44276;49.534;6.378;2023-06-22T12:57:56;28.60;83.80
53776;DHT22;44276;49.534;6.378;2023-06-22T13:00:24;28.20;99.90
53776;DHT22;44276;49.534;6.378;2023-06-22T13:02:52;26.70;99.90
53776;DHT22;44276;49.534;6.378;2023-06-22T13:05:23;23.70;99.90
53776;DHT22;44276;49.534;6.378;2023-06-22T13:07:51;22.40;99.90
53776;DHT22;44276;49.534;6.378;2023-06-22T13:10:21;22.00;99.90
53776;DHT22;44276;49.534;6.378;2023-06-22T13:12:50;21.70;99.90
53776;DHT22;44276;49.534;6.378;2023-06-22T13:15:21;21.60;99.90
53776;DHT22;44276;49.534;6.378;2023-06-22T13:17:49;21.40;99.90
53776;DHT22;44276;49.534;6.378;2023-06-22T13:20:18;21.20;99.90
53776;DHT22;44276;49.534;6.378;2023-06-22T13:22:46;21.20;99.90
53776;DHT22;44276;49.534;6.378;2023-06-22T13:25:14;21.20;99.90
53776;DHT22;44276;49.534;6.378;2023-06-22T13:27:45;21.40;99.90
53776;DHT22;44276;49.534;6.378;2023-06-22T13:30:15;21.50;99.90
53776;DHT22;44276;49.534;6.378;2023-06-22T13:32:43;21.60;99.90
53776;DHT22;44276;49.534;6.378;2023-06-22T13:35:11;21.70;99.90
53776;DHT22;44276;49.534;6.378;2023-06-22T13:37:40;21.80;99.90
53776;DHT22;44276;49.534;6.378;2023-06-22T13:40:08;21.70;99.90
53776;DHT22;44276;49.534;6.378;2023-06-22T13:42:37;21.80;99.90
53776;DHT22;44276;49.534;6.378;2023-06-22T13:45:07;21.90;99.90
53776;DHT22;44276;49.534;6.378;2023-06-22T13:47:37;22.10;99.90
53776;DHT22;44276;49.534;6.378;2023-06-22T13:50:06;22.30;99.90
53776;DHT22;44276;49.534;6.378;2023-06-22T13:52:35;22.40;99.90
53776;DHT22;44276;49.534;6.378;2023-06-22T13:55:04;22.70;99.90
53776;DHT22;44276;49.534;6.378;2023-06-22T13:57:33;22.90;99.90
53776;DHT22;44276;49.534;6.378;2023-06-22T14:00:02;23.20;99.90
53776;DHT22;44276;49.534;6.378;2023-06-22T14:02:32;23.40;99.90
53776;DHT22;44276;49.534;6.378;2023-06-22T14:05:01;23.60;99.90
53776;DHT22;44276;49.534;6.378;2023-06-22T14:07:30;24.00;99.90
53776;DHT22;44276;49.534;6.378;2023-06-22T14:10:00;24.40;99.90
53776;DHT22;44276;49.534;6.378;2023-06-22T14:12:29;24.80;99.90
53776;DHT22;44276;49.534;6.378;2023-06-22T14:14:57;25.00;99.90
53776;DHT22;44276;49.534;6.378;2023-06-22T14:17:26;25.20;99.90
53776;DHT22;44276;49.534;6.378;2023-06-22T14:19:54;25.50;99.90
53776;DHT22;44276;49.534;6.378;2023-06-22T14:22:24;26.00;99.90
53776;DHT22;44276;49.534;6.378;2023-06-22T14:24:53;26.50;99.90
53776;DHT22;44276;49.534;6.378;2023-06-22T14:27:22;26.80;92.20
53776;DHT22;44276;49.534;6.378;2023-06-22T14:29:59;27.00;81.50
53776;DHT22;44276;49.534;6.378;2023-06-22T14:32:30;27.30;78.90
53776;DHT22;44276;49.534;6.378;2023-06-22T14:34:59;27.70;66.40
53776;DHT22;44276;49.534;6.378;2023-06-22T14:37:30;27.90;61.10
53776;DHT22;44276;49.534;6.378;2023-06-22T14:40:01;28.10;56.30
53776;DHT22;44276;49.534;6.378;2023-06-22T14:42:32;28.00;52.20
53776;DHT22;44276;49.534;6.378;2023-06-22T14:45:00;27.60;54.10
53776;DHT22;44276;49.534;6.378;2023-06-22T14:47:29;27.10;56.70
53776;DHT22;44276;49.534;6.378;2023-06-22T14:49:57;26.70;69.30
53776;DHT22;44276;49.534;6.378;2023-06-22T14:52:29;26.30;68.20
53776;DHT22;44276;49.534;6.378;2023-06-22T14:54:57;26.20;73.30
53776;DHT22;44276;49.534;6.378;2023-06-22T14:57:26;27.00;71.50
53776;DHT22;44276;49.534;6.378;2023-06-22T14:59:55;28.20;51.20
53776;DHT22;44276;49.534;6.378;2023-06-22T15:02:26;28.80;47.30
53776;DHT22;44276;49.534;6.378;2023-06-22T15:04:55;29.10;45.00
53776;DHT22;44276;49.534;6.378;2023-06-22T15:07:24;28.70;42.90
53776;DHT22;44276;49.534;6.378;2023-06-22T15:09:53;28.50;42.50
53776;DHT22;44276;49.534;6.378;2023-06-22T15:12:21;28.80;42.70
53776;DHT22;44276;49.534;6.378;2023-06-22T15:14:49;28.70;41.60
53776;DHT22;44276;49.534;6.378;2023-06-22T15:17:17;28.40;38.20
53776;DHT22;44276;49.534;6.378;2023-06-22T15:19:46;27.70;42.80
53776;DHT22;44276;49.534;6.378;2023-06-22T15:22:14;27.00;45.00
53776;DHT22;44276;49.534;6.378;2023-06-22T15:24:44;26.60;51.60
53776;DHT22;44276;49.534;6.378;2023-06-22T15:27:16;26.50;54.20
53776;DHT22;44276;49.534;6.378;2023-06-22T15:29:44;26.50;59.70
53776;DHT22;44276;49.534;6.378;2023-06-22T15:32:12;26.50;61.60
53776;DHT22;44276;49.534;6.378;2023-06-22T15:34:40;27.30;55.00
53776;DHT22;44276;49.534;6.378;2023-06-22T15:37:08;27.70;51.30
53776;DHT22;44276;49.534;6.378;2023-06-22T15:39:36;28.10;44.80
53776;DHT22;44276;49.534;6.378;2023-06-22T15:42:05;28.40;46.00
53776;DHT22;44276;49.534;6.378;2023-06-22T15:44:35;28.40;39.30